createdAt,value
2018-07-17T00:00:30.191Z,1025.98
2018-07-17T00:01:30.187Z,1025.95
2018-07-17T00:02:30.184Z,1025.95
2018-07-17T00:03:30.186Z,1025.94
2018-07-17T00:04:30.179Z,1025.95
2018-07-17T00:05:30.176Z,1025.96
2018-07-17T00:06:30.175Z,1026.01
2018-07-17T00:07:30.170Z,1025.95
2018-07-17T00:08:30.167Z,1025.94
2018-07-17T00:09:30.196Z,1025.95
2018-07-17T00:10:30.161Z,1025.97
2018-07-17T00:11:30.158Z,1025.95
2018-07-17T00:12:30.154Z,1025.94
2018-07-17T00:13:30.151Z,1025.91
2018-07-17T00:14:30.147Z,1025.92
2018-07-17T00:15:30.149Z,1025.91
2018-07-17T00:16:30.142Z,1025.91
2018-07-17T00:17:30.139Z,1025.93
2018-07-17T00:18:30.136Z,1025.89
2018-07-17T00:19:30.133Z,1025.91
2018-07-17T00:20:30.130Z,1025.88
2018-07-17T00:21:30.126Z,1025.91
2018-07-17T00:22:30.123Z,1025.96
2018-07-17T00:23:30.120Z,1025.96
2018-07-17T00:24:30.116Z,1025.96
2018-07-17T00:25:30.117Z,1025.98
2018-07-17T00:26:30.112Z,1025.96
2018-07-17T00:27:30.108Z,1025.98
2018-07-17T00:28:30.103Z,1025.98
2018-07-17T00:29:30.101Z,1025.99
2018-07-17T00:30:30.098Z,1025.96
2018-07-17T00:31:30.095Z,1025.95
2018-07-17T00:32:30.091Z,1025.94
2018-07-17T00:33:30.088Z,1025.93
2018-07-17T00:34:30.085Z,1025.96
2018-07-17T00:35:30.084Z,1025.93
2018-07-17T00:36:30.078Z,1025.98
2018-07-17T00:37:30.079Z,1025.99
2018-07-17T00:38:30.073Z,1025.96
2018-07-17T00:39:30.068Z,1025.98
2018-07-17T00:40:30.065Z,1025.96
2018-07-17T00:41:30.062Z,1025.99
2018-07-17T00:42:30.059Z,1025.97
2018-07-17T00:43:30.055Z,1025.95
2018-07-17T00:44:30.052Z,1025.93
2018-07-17T00:45:30.052Z,1025.94
2018-07-17T00:46:30.045Z,1025.93
2018-07-17T00:47:30.042Z,1025.92
2018-07-17T00:48:30.040Z,1025.94
2018-07-17T00:49:30.036Z,1025.96
2018-07-17T00:50:30.032Z,1025.97
2018-07-17T00:51:30.029Z,1025.98
2018-07-17T00:52:30.026Z,1025.99
2018-07-17T00:53:30.023Z,1025.97
2018-07-17T00:54:30.021Z,1025.97
2018-07-17T00:55:30.046Z,1025.99
2018-07-17T00:56:30.017Z,1025.98
2018-07-17T00:57:30.026Z,1025.95
2018-07-17T00:58:30.009Z,1025.92
2018-07-17T00:59:30.015Z,1025.92
2018-07-17T01:00:29.999Z,1025.91
2018-07-17T01:01:29.995Z,1025.94
2018-07-17T01:02:29.993Z,1025.92
2018-07-17T01:03:29.989Z,1025.93
2018-07-17T01:04:29.991Z,1025.96
2018-07-17T01:05:29.982Z,1025.97
2018-07-17T01:06:29.978Z,1025.96
2018-07-17T01:07:29.976Z,1025.93
2018-07-17T01:08:29.971Z,1025.94
2018-07-17T01:09:29.972Z,1025.96
2018-07-17T01:10:29.965Z,1025.92
2018-07-17T01:11:29.962Z,1026.01
2018-07-17T01:12:29.958Z,1026
2018-07-17T01:13:29.955Z,1026.07
2018-07-17T01:14:29.951Z,1026.04
2018-07-17T01:15:29.949Z,1026.06
2018-07-17T01:16:29.945Z,1026.05
2018-07-17T01:17:29.941Z,1026.03
2018-07-17T01:18:29.938Z,1026.06
2018-07-17T01:19:29.934Z,1026.02
2018-07-17T01:20:29.931Z,1026
2018-07-17T01:21:29.927Z,1026
2018-07-17T01:22:29.925Z,1025.99
2018-07-17T01:23:29.920Z,1026.01
2018-07-17T01:24:29.917Z,1026
2018-07-17T01:25:29.916Z,1026.05
2018-07-17T01:26:29.911Z,1026.03
2018-07-17T01:27:29.907Z,1026.05
2018-07-17T01:28:29.906Z,1026.03
2018-07-17T01:29:29.901Z,1026.05
2018-07-17T01:30:29.896Z,1026.06
2018-07-17T01:31:29.893Z,1026.04
2018-07-17T01:32:29.892Z,1026.06
2018-07-17T01:33:29.887Z,1026.02
2018-07-17T01:34:29.882Z,1026.06
2018-07-17T01:36:29.876Z,1026.02
2018-07-17T01:37:29.873Z,1026.02
2018-07-17T01:38:29.965Z,1026.06
2018-07-17T01:39:30.271Z,1026.02
2018-07-17T01:40:29.865Z,1025.96
2018-07-17T01:41:29.860Z,1026.01
2018-07-17T01:42:29.856Z,1025.99
2018-07-17T01:43:29.853Z,1026.01
2018-07-17T01:44:29.854Z,1025.96
2018-07-17T01:45:29.845Z,1026.02
2018-07-17T01:46:29.842Z,1026
2018-07-17T01:47:29.839Z,1026.01
2018-07-17T01:48:29.835Z,1026.01
2018-07-17T01:49:29.830Z,1026.03
2018-07-17T01:50:29.829Z,1025.99
2018-07-17T01:52:29.820Z,1025.96
2018-07-17T01:53:29.818Z,1025.97
2018-07-17T01:54:29.814Z,1025.96
2018-07-17T01:55:29.811Z,1025.94
2018-07-17T01:56:29.809Z,1025.94
2018-07-17T01:57:29.803Z,1025.93
2018-07-17T01:58:29.800Z,1025.94
2018-07-17T01:59:29.796Z,1025.9
2018-07-17T02:00:29.793Z,1025.91
2018-07-17T02:01:29.789Z,1025.88
2018-07-17T02:02:29.789Z,1025.82
2018-07-17T02:03:29.783Z,1025.81
2018-07-17T02:04:29.779Z,1025.78
2018-07-17T02:05:29.775Z,1025.77
2018-07-17T02:06:29.772Z,1025.78
2018-07-17T02:07:29.768Z,1025.74
2018-07-17T02:08:29.765Z,1025.72
2018-07-17T02:09:29.762Z,1025.71
2018-07-17T02:10:29.757Z,1025.69
2018-07-17T02:11:29.755Z,1025.71
2018-07-17T02:12:29.753Z,1025.74
2018-07-17T02:13:29.749Z,1025.69
2018-07-17T02:14:29.743Z,1025.7
2018-07-17T02:15:29.741Z,1025.7
2018-07-17T02:16:29.738Z,1025.73
2018-07-17T02:17:29.734Z,1025.76
2018-07-17T02:18:29.731Z,1025.75
2018-07-17T02:19:29.727Z,1025.73
2018-07-17T02:20:29.723Z,1025.72
2018-07-17T02:21:29.719Z,1025.69
2018-07-17T02:22:29.716Z,1025.7
2018-07-17T02:23:29.713Z,1025.68
2018-07-17T02:24:29.717Z,1025.64
2018-07-17T02:25:29.708Z,1025.64
2018-07-17T02:26:29.702Z,1025.66
2018-07-17T02:27:29.702Z,1025.66
2018-07-17T02:28:29.701Z,1025.61
2018-07-17T02:29:29.692Z,1025.58
2018-07-17T02:30:29.690Z,1025.56
2018-07-17T02:31:29.687Z,1025.49
2018-07-17T02:32:29.682Z,1025.5
2018-07-17T02:33:29.679Z,1025.51
2018-07-17T02:34:29.676Z,1025.51
2018-07-17T02:35:29.672Z,1025.51
2018-07-17T02:36:29.669Z,1025.46
2018-07-17T02:37:29.665Z,1025.48
2018-07-17T02:38:29.665Z,1025.44
2018-07-17T02:39:29.659Z,1025.45
2018-07-17T02:40:29.655Z,1025.38
2018-07-17T02:41:29.652Z,1025.34
2018-07-17T02:42:29.742Z,1025.32
2018-07-17T02:43:29.645Z,1025.3
2018-07-17T02:44:29.642Z,1025.27
2018-07-17T02:45:29.639Z,1025.25
2018-07-17T02:46:29.637Z,1025.21
2018-07-17T02:47:29.632Z,1025.2
2018-07-17T02:48:29.639Z,1025.16
2018-07-17T02:49:29.631Z,1025.15
2018-07-17T02:50:29.629Z,1025.12
2018-07-17T02:51:29.619Z,1025.16
2018-07-17T02:52:29.616Z,1025.17
2018-07-17T02:53:29.613Z,1025.18
2018-07-17T02:54:29.609Z,1025.17
2018-07-17T02:55:29.610Z,1025.18
2018-07-17T02:56:29.603Z,1025.17
2018-07-17T02:57:29.604Z,1025.16
2018-07-17T02:58:29.597Z,1025.2
2018-07-17T02:59:29.594Z,1025.2
2018-07-17T03:00:29.591Z,1025.17
2018-07-17T03:01:29.588Z,1025.19
2018-07-17T03:02:29.583Z,1025.18
2018-07-17T03:03:29.604Z,1025.15
2018-07-17T03:04:29.579Z,1025.18
2018-07-17T03:05:29.575Z,1025.16
2018-07-17T03:06:29.572Z,1025.17
2018-07-17T03:07:29.569Z,1025.24
2018-07-17T03:08:29.567Z,1025.21
2018-07-17T03:09:29.561Z,1025.24
2018-07-17T03:10:29.559Z,1025.24
2018-07-17T03:11:29.560Z,1025.27
2018-07-17T03:12:29.554Z,1025.33
2018-07-17T03:13:29.550Z,1025.29
2018-07-17T03:14:29.547Z,1025.31
2018-07-17T03:15:29.545Z,1025.36
2018-07-17T03:16:29.543Z,1025.37
2018-07-17T03:17:29.539Z,1025.39
2018-07-17T03:18:29.537Z,1025.43
2018-07-17T03:19:29.534Z,1025.48
2018-07-17T03:20:29.529Z,1025.5
2018-07-17T03:21:29.525Z,1025.52
2018-07-17T03:22:29.523Z,1025.54
2018-07-17T03:23:29.519Z,1025.55
2018-07-17T03:24:29.521Z,1025.56
2018-07-17T03:25:29.514Z,1025.57
2018-07-17T03:26:29.510Z,1025.58
2018-07-17T03:27:29.507Z,1025.57
2018-07-17T03:28:29.504Z,1025.59
2018-07-17T03:29:29.501Z,1025.55
2018-07-17T03:30:29.499Z,1025.56
2018-07-17T03:31:29.496Z,1025.53
2018-07-17T03:32:29.492Z,1025.51
2018-07-17T03:33:29.490Z,1025.5
2018-07-17T03:34:29.489Z,1025.44
2018-07-17T03:35:29.483Z,1025.49
2018-07-17T03:36:29.531Z,1025.46
2018-07-17T03:37:29.478Z,1025.44
2018-07-17T03:38:29.474Z,1025.41
2018-07-17T03:39:29.477Z,1025.39
2018-07-17T03:40:29.471Z,1025.41
2018-07-17T03:41:29.467Z,1025.39
2018-07-17T03:42:29.462Z,1025.36
2018-07-17T03:43:29.463Z,1025.32
2018-07-17T03:44:29.458Z,1025.31
2018-07-17T03:45:29.454Z,1025.27
2018-07-17T03:46:29.453Z,1025.24
2018-07-17T03:47:29.449Z,1025.21
2018-07-17T03:48:29.495Z,1025.16
2018-07-17T03:49:29.442Z,1025.15
2018-07-17T03:50:29.440Z,1025.15
2018-07-17T03:51:29.438Z,1025.11
2018-07-17T03:52:29.435Z,1025.08
2018-07-17T03:53:29.432Z,1025.05
2018-07-17T03:54:29.428Z,1025
2018-07-17T03:55:29.426Z,1024.97
2018-07-17T03:56:29.423Z,1024.95
2018-07-17T03:57:29.421Z,1024.86
2018-07-17T03:58:29.418Z,1024.84
2018-07-17T03:59:29.416Z,1024.81
2018-07-17T04:00:29.414Z,1024.8
2018-07-17T04:01:29.410Z,1024.78
2018-07-17T04:02:29.409Z,1024.79
2018-07-17T04:03:29.410Z,1024.71
2018-07-17T04:04:29.403Z,1024.68
2018-07-17T04:05:29.652Z,1024.66
2018-07-17T04:06:29.399Z,1024.67
2018-07-17T04:07:29.396Z,1024.61
2018-07-17T04:08:29.395Z,1024.64
2018-07-17T04:09:29.395Z,1024.62
2018-07-17T04:10:29.390Z,1024.56
2018-07-17T04:11:29.388Z,1024.55
2018-07-17T04:12:29.384Z,1024.51
2018-07-17T04:13:29.502Z,1024.51
2018-07-17T04:14:29.380Z,1024.48
2018-07-17T04:15:29.377Z,1024.45
2018-07-17T04:16:29.376Z,1024.43
2018-07-17T04:17:29.373Z,1024.37
2018-07-17T04:18:29.371Z,1024.34
2018-07-17T04:19:29.368Z,1024.35
2018-07-17T04:20:29.367Z,1024.28
2018-07-17T04:21:29.365Z,1024.28
2018-07-17T04:22:29.362Z,1024.24
2018-07-17T04:23:29.361Z,1024.21
2018-07-17T04:24:29.358Z,1024.2
2018-07-17T04:25:29.356Z,1024.18
2018-07-17T04:26:29.353Z,1024.19
2018-07-17T04:27:29.352Z,1024.19
2018-07-17T04:28:29.350Z,1024.2
2018-07-17T04:29:29.348Z,1024.16
2018-07-17T04:30:29.346Z,1024.21
2018-07-17T04:31:29.345Z,1024.19
2018-07-17T04:32:29.343Z,1024.2
2018-07-17T04:33:29.340Z,1024.18
2018-07-17T04:34:29.339Z,1024.18
2018-07-17T04:35:29.337Z,1024.2
2018-07-17T04:36:29.336Z,1024.19
2018-07-17T04:37:29.335Z,1024.2
2018-07-17T04:38:29.363Z,1024.2
2018-07-17T04:39:29.331Z,1024.2
2018-07-17T04:40:29.328Z,1024.22
2018-07-17T04:41:29.327Z,1024.2
2018-07-17T04:42:29.325Z,1024.26
2018-07-17T04:43:29.323Z,1024.21
2018-07-17T04:44:29.320Z,1024.2
2018-07-17T04:45:29.319Z,1024.22
2018-07-17T04:46:29.321Z,1024.23
2018-07-17T04:47:29.317Z,1024.19
2018-07-17T04:48:29.315Z,1024.16
2018-07-17T04:49:29.314Z,1024.16
2018-07-17T04:50:29.313Z,1024.17
2018-07-17T04:51:29.314Z,1024.17
2018-07-17T04:52:29.309Z,1024.11
2018-07-17T04:53:29.308Z,1024.13
2018-07-17T04:54:29.310Z,1024.13
2018-07-17T04:55:29.305Z,1024.13
2018-07-17T04:56:29.303Z,1024.15
2018-07-17T04:57:29.301Z,1024.12
2018-07-17T04:58:29.299Z,1024.11
2018-07-17T04:59:29.298Z,1024.12
2018-07-17T05:00:29.297Z,1024.08
2018-07-17T05:01:29.337Z,1024.08
2018-07-17T05:02:29.299Z,1024.08
2018-07-17T05:03:29.292Z,1024.05
2018-07-17T05:04:29.291Z,1024.01
2018-07-17T05:05:29.290Z,1024.02
2018-07-17T05:06:29.287Z,1023.99
2018-07-17T05:07:29.286Z,1023.97
2018-07-17T05:08:29.285Z,1023.95
2018-07-17T05:09:29.283Z,1023.89
2018-07-17T05:10:29.281Z,1023.93
2018-07-17T05:11:29.283Z,1023.87
2018-07-17T05:12:29.279Z,1023.87
2018-07-17T05:13:29.279Z,1023.79
2018-07-17T05:14:29.276Z,1023.76
2018-07-17T05:15:29.275Z,1023.76
2018-07-17T05:16:29.346Z,1023.74
2018-07-17T05:17:29.271Z,1023.71
2018-07-17T05:18:29.287Z,1023.71
2018-07-17T05:19:29.269Z,1023.73
2018-07-17T05:20:29.268Z,1023.73
2018-07-17T05:21:29.267Z,1023.73
2018-07-17T05:22:29.265Z,1023.74
2018-07-17T05:23:29.265Z,1023.73
2018-07-17T05:24:29.263Z,1023.78
2018-07-17T05:25:29.263Z,1023.74
2018-07-17T05:26:29.267Z,1023.71
2018-07-17T05:27:29.261Z,1023.68
2018-07-17T05:28:29.259Z,1023.59
2018-07-17T05:29:29.259Z,1023.46
2018-07-17T05:30:29.258Z,1023.31
2018-07-17T05:31:29.257Z,1023.14
2018-07-17T05:32:29.256Z,1022.95
2018-07-17T05:33:29.255Z,1022.9
2018-07-17T05:34:29.262Z,1022.76
2018-07-17T05:35:29.327Z,1022.66
2018-07-17T05:36:29.255Z,1022.5
2018-07-17T05:37:29.256Z,1022.38
2018-07-17T05:38:29.256Z,1022.23
2018-07-17T05:39:29.255Z,1022.12
2018-07-17T05:40:29.259Z,1021.96
2018-07-17T05:41:29.260Z,1021.76
2018-07-17T05:42:29.258Z,1021.63
2018-07-17T05:43:29.259Z,1021.61
2018-07-17T05:44:29.261Z,1021.66
2018-07-17T05:45:29.263Z,1021.65
2018-07-17T05:46:29.329Z,1021.49
2018-07-17T05:47:29.269Z,1021.34
2018-07-17T05:48:29.275Z,1021.23
2018-07-17T05:49:29.275Z,1021.09
2018-07-17T05:50:29.281Z,1020.99
2018-07-17T05:51:29.281Z,1020.93
2018-07-17T05:52:29.285Z,1020.83
2018-07-17T05:53:29.284Z,1020.78
2018-07-17T05:54:29.288Z,1020.72
2018-07-17T05:55:29.292Z,1020.7
2018-07-17T05:56:29.297Z,1020.62
2018-07-17T05:57:29.301Z,1020.62
2018-07-17T05:58:29.305Z,1020.61
2018-07-17T05:59:29.311Z,1020.61
2018-07-17T06:00:29.316Z,1020.7
2018-07-17T06:01:29.320Z,1020.66
2018-07-17T06:02:29.329Z,1020.7
2018-07-17T06:03:29.366Z,1020.66
2018-07-17T06:04:29.335Z,1020.66
2018-07-17T06:05:29.342Z,1020.7
2018-07-17T06:06:29.351Z,1020.63
2018-07-17T06:07:29.354Z,1020.57
2018-07-17T06:08:29.359Z,1020.63
2018-07-17T06:09:29.366Z,1020.65
2018-07-17T06:10:29.373Z,1020.61
2018-07-17T06:11:29.381Z,1020.55
2018-07-17T06:12:29.389Z,1020.59
2018-07-17T06:13:29.393Z,1020.61
2018-07-17T06:14:29.401Z,1020.6
2018-07-17T06:15:29.402Z,1020.76
2018-07-17T06:16:29.409Z,1020.82
2018-07-17T06:17:29.417Z,1020.89
2018-07-17T06:18:29.423Z,1020.9
2018-07-17T06:19:29.437Z,1020.87
2018-07-17T06:20:29.454Z,1020.9
2018-07-17T06:21:29.444Z,1020.87
2018-07-17T06:22:29.454Z,1020.91
2018-07-17T06:23:29.457Z,1020.9
2018-07-17T06:24:29.464Z,1021.01
2018-07-17T06:25:29.471Z,1021.01
2018-07-17T06:26:29.477Z,1021.04
2018-07-17T06:27:29.485Z,1020.98
2018-07-17T06:28:29.491Z,1021.05
2018-07-17T06:29:29.497Z,1021
2018-07-17T06:30:29.503Z,1021
2018-07-17T06:31:29.510Z,1021.05
2018-07-17T06:32:29.516Z,1021.08
2018-07-17T06:33:29.524Z,1021.1
2018-07-17T06:34:29.528Z,1021.08
2018-07-17T06:35:29.535Z,1021.1
2018-07-17T06:36:29.542Z,1021.11
2018-07-17T06:37:29.547Z,1021.11
2018-07-17T06:38:29.554Z,1021.13
2018-07-17T06:39:29.561Z,1021.19
2018-07-17T06:40:29.567Z,1021.18
2018-07-17T06:41:29.573Z,1021.23
2018-07-17T06:42:29.580Z,1021.27
2018-07-17T06:43:29.586Z,1021.42
2018-07-17T06:44:29.609Z,1021.49
2018-07-17T06:45:29.598Z,1021.48
2018-07-17T06:46:29.606Z,1021.44
2018-07-17T06:47:29.612Z,1021.34
2018-07-17T06:48:29.617Z,1021.25
2018-07-17T06:49:29.623Z,1021.1
2018-07-17T06:50:29.822Z,1020.99
2018-07-17T06:51:29.643Z,1020.93
2018-07-17T06:52:29.646Z,1020.85
2018-07-17T06:53:29.650Z,1020.77
2018-07-17T06:54:29.656Z,1020.79
2018-07-17T06:55:29.663Z,1020.81
2018-07-17T06:56:29.670Z,1020.82
2018-07-17T06:57:29.698Z,1020.67
2018-07-17T06:58:29.684Z,1020.55
2018-07-17T06:59:29.691Z,1020.47
2018-07-17T07:00:29.697Z,1020.29
2018-07-17T07:01:29.704Z,1020.13
2018-07-17T07:02:29.713Z,1019.84
2018-07-17T07:03:29.720Z,1019.76
2018-07-17T07:04:29.725Z,1019.6
2018-07-17T07:05:29.736Z,1019.41
2018-07-17T07:06:29.745Z,1019.26
2018-07-17T07:07:29.752Z,1019.17
2018-07-17T07:08:29.756Z,1019.08
2018-07-17T07:09:29.771Z,1019.12
2018-07-17T07:10:29.772Z,1019.08
2018-07-17T07:11:29.780Z,1019.02
2018-07-17T07:12:30.041Z,1019.02
2018-07-17T07:13:29.798Z,1019.08
2018-07-17T07:14:29.810Z,1019.16
2018-07-17T07:15:29.816Z,1019.25
2018-07-17T07:16:29.824Z,1019.27
2018-07-17T07:17:29.833Z,1019.33
2018-07-17T07:18:29.843Z,1019.37
2018-07-17T07:19:29.853Z,1019.16
2018-07-17T07:20:29.862Z,1019.15
2018-07-17T07:21:29.870Z,1019.09
2018-07-17T07:22:29.881Z,1018.95
2018-07-17T07:23:29.896Z,1018.99
2018-07-17T07:24:29.906Z,1018.95
2018-07-17T07:25:29.911Z,1018.93
2018-07-17T07:26:29.927Z,1019.01
2018-07-17T07:27:29.931Z,1018.94
2018-07-17T07:28:29.938Z,1019.03
2018-07-17T07:29:29.948Z,1019.06
2018-07-17T07:30:29.958Z,1019
2018-07-17T07:31:29.969Z,1019.03
2018-07-17T07:32:29.977Z,1018.97
2018-07-17T07:33:29.988Z,1018.97
2018-07-17T07:34:30.011Z,1018.99
2018-07-17T07:35:30.011Z,1018.96
2018-07-17T07:36:30.022Z,1018.92
2018-07-17T07:37:30.032Z,1018.77
2018-07-17T07:38:30.039Z,1018.51
2018-07-17T07:39:30.048Z,1018.34
2018-07-17T07:40:30.059Z,1018.13
2018-07-17T07:41:30.072Z,1018.28
2018-07-17T07:42:30.112Z,1018.37
2018-07-17T07:43:30.348Z,1018.32
2018-07-17T07:44:30.101Z,1018.23
2018-07-17T07:45:30.112Z,1018.04
2018-07-17T07:46:30.123Z,1017.98
2018-07-17T07:47:30.135Z,1017.97
2018-07-17T07:48:30.162Z,1017.92
2018-07-17T07:49:30.161Z,1018.06
2018-07-17T07:50:30.167Z,1018.16
2018-07-17T07:51:30.186Z,1018.27
2018-07-17T07:52:30.191Z,1018.33
2018-07-17T07:53:30.202Z,1018.47
2018-07-17T07:54:30.217Z,1018.66
2018-07-17T07:55:30.294Z,1018.77
2018-07-17T07:56:30.236Z,1018.88
2018-07-17T07:57:30.249Z,1019.05
2018-07-17T07:58:30.260Z,1019.07
2018-07-17T07:59:30.271Z,1019.04
2018-07-17T08:00:30.283Z,1019.02
2018-07-17T08:01:30.297Z,1018.96
2018-07-17T08:02:30.304Z,1018.95
2018-07-17T08:03:30.387Z,1018.82
2018-07-17T08:04:30.328Z,1018.62
2018-07-17T08:05:30.341Z,1018.46
2018-07-17T08:06:30.350Z,1018.38
2018-07-17T08:07:30.362Z,1018.3
2018-07-17T08:08:30.377Z,1018.25
2018-07-17T08:10:30.395Z,1018.2
2018-07-17T08:11:30.416Z,1018
2018-07-17T08:12:30.428Z,1017.9
2018-07-17T08:13:30.435Z,1017.79
2018-07-17T08:14:30.693Z,1017.74
2018-07-17T08:15:30.455Z,1017.64
2018-07-17T08:16:30.467Z,1017.46
2018-07-17T08:17:30.480Z,1017.32
2018-07-17T08:18:30.495Z,1017.11
2018-07-17T08:19:30.504Z,1016.87
2018-07-17T08:20:30.520Z,1016.65
2018-07-17T08:21:30.530Z,1016.43
2018-07-17T08:22:30.545Z,1016.23
2018-07-17T08:23:30.557Z,1016.17
2018-07-17T08:24:30.572Z,1016.13
2018-07-17T08:25:30.586Z,1016.12
2018-07-17T08:26:30.600Z,1016.17
2018-07-17T08:27:30.614Z,1016.45
2018-07-17T08:28:30.627Z,1016.7
2018-07-17T08:29:30.643Z,1016.87
2018-07-17T08:30:30.656Z,1016.89
2018-07-17T08:31:30.671Z,1016.92
2018-07-17T08:32:30.685Z,1017.4
2018-07-17T08:33:30.705Z,1017.85
2018-07-17T08:34:30.714Z,1018.14
2018-07-17T08:35:30.728Z,1018.32
2018-07-17T08:36:30.744Z,1018.55
2018-07-17T08:37:30.760Z,1018.6
2018-07-17T08:38:30.776Z,1018.67
2018-07-17T08:39:30.783Z,1018.63
2018-07-17T08:40:30.796Z,1018.53
2018-07-17T08:41:30.811Z,1018.23
2018-07-17T08:42:30.822Z,1018.11
2018-07-17T08:43:31.032Z,1017.99
2018-07-17T08:44:30.848Z,1017.86
2018-07-17T08:45:30.860Z,1017.58
2018-07-17T08:46:30.874Z,1017.28
2018-07-17T08:47:30.895Z,1017.13
2018-07-17T08:48:30.903Z,1017.01
2018-07-17T08:49:30.914Z,1016.81
2018-07-17T08:50:30.927Z,1016.68
2018-07-17T08:51:30.962Z,1016.69
2018-07-17T08:52:30.955Z,1016.65
2018-07-17T08:53:30.968Z,1016.79
2018-07-17T08:54:31.015Z,1016.82
2018-07-17T08:55:30.997Z,1017.02
2018-07-17T08:56:31.008Z,1017.39
2018-07-17T08:57:31.022Z,1017.84
2018-07-17T08:58:31.036Z,1018.32
2018-07-17T08:59:31.051Z,1018.84
2018-07-17T09:00:31.214Z,1019.23
2018-07-17T09:01:31.081Z,1019.54
2018-07-17T09:02:31.095Z,1019.87
2018-07-17T09:03:31.101Z,1020.21
2018-07-17T09:04:31.113Z,1020.44
2018-07-17T09:05:31.127Z,1020.63
2018-07-17T09:06:31.138Z,1020.9
2018-07-17T09:07:31.150Z,1021.15
2018-07-17T09:08:31.161Z,1021.26
2018-07-17T09:09:31.171Z,1021.32
2018-07-17T09:10:31.183Z,1021.48
2018-07-17T09:11:31.192Z,1021.59
2018-07-17T09:12:31.203Z,1021.71
2018-07-17T09:13:31.213Z,1021.81
2018-07-17T09:14:31.221Z,1021.94
2018-07-17T09:15:31.231Z,1022.11
2018-07-17T09:16:31.241Z,1022.26
2018-07-17T09:17:31.250Z,1022.31
2018-07-17T09:18:31.259Z,1022.52
2018-07-17T09:19:31.266Z,1022.53
2018-07-17T09:20:31.282Z,1022.54
2018-07-17T09:21:31.298Z,1022.61
2018-07-17T09:22:31.290Z,1022.6
2018-07-17T09:23:31.298Z,1022.6
2018-07-17T09:24:31.306Z,1022.61
2018-07-17T09:25:31.312Z,1022.67
2018-07-17T09:26:31.321Z,1022.7
2018-07-17T09:27:31.331Z,1022.77
2018-07-17T09:28:31.335Z,1022.84
2018-07-17T09:29:31.340Z,1022.9
2018-07-17T09:30:31.347Z,1022.97
2018-07-17T09:31:31.353Z,1022.94
2018-07-17T09:32:31.359Z,1023.08
2018-07-17T09:33:31.408Z,1023.15
2018-07-17T09:34:31.374Z,1023.11
2018-07-17T09:35:31.378Z,1023.16
2018-07-17T09:36:31.384Z,1023.16
2018-07-17T09:37:31.389Z,1023.14
2018-07-17T09:38:31.411Z,1023.11
2018-07-17T09:39:31.402Z,1023.07
2018-07-17T09:40:31.405Z,1023.12
2018-07-17T09:41:31.410Z,1023.19
2018-07-17T09:42:31.416Z,1023.25
2018-07-17T09:43:31.421Z,1023.23
2018-07-17T09:44:31.430Z,1023.24
2018-07-17T09:45:31.430Z,1023.25
2018-07-17T09:46:31.435Z,1023.29
2018-07-17T09:47:31.441Z,1023.3
2018-07-17T09:48:31.444Z,1023.31
2018-07-17T09:49:31.449Z,1023.5
2018-07-17T09:50:31.453Z,1023.34
2018-07-17T09:51:31.457Z,1023.35
2018-07-17T09:52:31.462Z,1023.31
2018-07-17T09:53:31.469Z,1023.31
2018-07-17T09:54:31.469Z,1023.3
2018-07-17T09:55:31.474Z,1023.28
2018-07-17T09:56:31.481Z,1023.26
2018-07-17T09:57:31.483Z,1023.34
2018-07-17T09:58:31.486Z,1023.29
2018-07-17T09:59:31.491Z,1023.25
2018-07-17T10:00:31.493Z,1023.29
2018-07-17T10:01:31.497Z,1023.28
2018-07-17T10:02:31.501Z,1023.26
2018-07-17T10:03:31.506Z,1023.23
2018-07-17T10:04:31.519Z,1023.23
2018-07-17T10:05:31.512Z,1023.13
2018-07-17T10:06:31.529Z,1023.16
2018-07-17T10:07:31.526Z,1023.19
2018-07-17T10:08:31.527Z,1023.26
2018-07-17T10:09:31.617Z,1023.17
2018-07-17T10:10:31.532Z,1023.23
2018-07-17T10:11:31.536Z,1023.18
2018-07-17T10:12:31.541Z,1023.2
2018-07-17T10:13:31.544Z,1023.13
2018-07-17T10:14:31.580Z,1023.12
2018-07-17T10:15:31.551Z,1023.11
2018-07-17T10:16:31.555Z,1023.09
2018-07-17T10:17:31.560Z,1023.15
2018-07-17T10:18:31.563Z,1023.18
2018-07-17T10:19:31.571Z,1023.17
2018-07-17T10:20:31.573Z,1023.16
2018-07-17T10:21:31.575Z,1023.13
2018-07-17T10:22:31.579Z,1023.2
2018-07-17T10:23:31.583Z,1023.09
2018-07-17T10:24:31.587Z,1023.11
2018-07-17T10:25:31.591Z,1023.05
2018-07-17T10:26:31.598Z,1023.11
2018-07-17T10:27:31.597Z,1023
2018-07-17T10:28:31.601Z,1022.97
2018-07-17T10:29:31.612Z,1022.98
2018-07-17T10:30:31.609Z,1022.92
2018-07-17T10:31:31.612Z,1022.95
2018-07-17T10:32:31.619Z,1022.94
2018-07-17T10:33:31.621Z,1022.87
2018-07-17T10:34:31.625Z,1022.98
2018-07-17T10:35:31.629Z,1022.98
2018-07-17T10:36:31.641Z,1023.09
2018-07-17T10:37:31.637Z,1023.1
2018-07-17T10:38:31.666Z,1023.09
2018-07-17T10:39:31.643Z,1023.13
2018-07-17T10:40:31.648Z,1023.1
2018-07-17T10:41:31.658Z,1023.13
2018-07-17T10:42:31.654Z,1023.08
2018-07-17T10:43:31.658Z,1023.02
2018-07-17T10:44:31.662Z,1023.04
2018-07-17T10:45:31.694Z,1023.05
2018-07-17T10:46:31.669Z,1023.03
2018-07-17T10:47:31.748Z,1022.98
2018-07-17T10:48:31.678Z,1022.95
2018-07-17T10:49:31.680Z,1022.96
2018-07-17T10:50:31.685Z,1022.92
2018-07-17T10:51:31.689Z,1022.88
2018-07-17T10:52:31.696Z,1022.89
2018-07-17T10:53:31.696Z,1022.93
2018-07-17T10:54:31.704Z,1022.8
2018-07-17T10:55:31.704Z,1022.78
2018-07-17T10:56:31.710Z,1022.83
2018-07-17T10:57:31.714Z,1022.76
2018-07-17T10:58:31.730Z,1022.74
2018-07-17T10:59:31.723Z,1022.61
2018-07-17T11:00:31.730Z,1022.55
2018-07-17T11:01:31.726Z,1022.58
2018-07-17T11:02:31.731Z,1022.47
2018-07-17T11:03:31.735Z,1022.49
2018-07-17T11:04:31.737Z,1022.46
2018-07-17T11:05:31.742Z,1022.44
2018-07-17T11:06:31.748Z,1022.37
2018-07-17T11:07:31.751Z,1022.35
2018-07-17T11:08:31.813Z,1022.22
2018-07-17T11:09:31.758Z,1022.17
2018-07-17T11:10:31.769Z,1022.13
2018-07-17T11:11:31.768Z,1022.04
2018-07-17T11:12:31.772Z,1022.01
2018-07-17T11:13:31.776Z,1022.05
2018-07-17T11:14:31.780Z,1022.03
2018-07-17T11:15:31.785Z,1022.1
2018-07-17T11:16:31.793Z,1022.22
2018-07-17T11:17:31.793Z,1022.22
2018-07-17T11:18:31.796Z,1022.39
2018-07-17T11:19:31.814Z,1022.47
2018-07-17T11:20:31.806Z,1022.46
2018-07-17T11:21:32.062Z,1022.49
2018-07-17T11:22:31.819Z,1022.39
2018-07-17T11:23:31.822Z,1022.42
2018-07-17T11:24:31.824Z,1022.29
2018-07-17T11:25:31.857Z,1022.36
2018-07-17T11:26:31.834Z,1022.28
2018-07-17T11:27:31.837Z,1022.42
2018-07-17T11:28:31.841Z,1022.34
2018-07-17T11:29:31.846Z,1022.41
2018-07-17T11:30:31.849Z,1022.48
2018-07-17T11:31:31.855Z,1022.49
2018-07-17T11:32:31.861Z,1022.35
2018-07-17T11:33:31.863Z,1022.3
2018-07-17T11:34:31.869Z,1022.2
2018-07-17T11:35:31.875Z,1022.18
2018-07-17T11:36:31.877Z,1022.2
2018-07-17T11:37:31.881Z,1021.99
2018-07-17T11:38:31.885Z,1021.94
2018-07-17T11:39:31.890Z,1022.01
2018-07-17T11:40:31.893Z,1021.87
2018-07-17T11:41:31.899Z,1021.73
2018-07-17T11:42:31.903Z,1021.9
2018-07-17T11:43:31.908Z,1021.8
2018-07-17T11:44:31.912Z,1021.83
2018-07-17T11:45:31.934Z,1021.83
2018-07-17T11:46:31.926Z,1021.77
2018-07-17T11:47:31.927Z,1021.84
2018-07-17T11:48:31.938Z,1021.87
2018-07-17T11:49:31.937Z,1021.89
2018-07-17T11:50:31.939Z,1021.86
2018-07-17T11:51:31.943Z,1021.89
2018-07-17T11:52:31.947Z,1021.85
2018-07-17T11:53:31.957Z,1021.82
2018-07-17T11:54:31.958Z,1021.77
2018-07-17T11:55:31.974Z,1021.81
2018-07-17T11:56:31.966Z,1021.64
2018-07-17T11:57:31.971Z,1021.44
2018-07-17T11:58:31.976Z,1021.37
2018-07-17T11:59:32.016Z,1021.35
2018-07-17T12:00:31.992Z,1021.28
2018-07-17T12:01:31.991Z,1021.26
2018-07-17T12:02:31.996Z,1021.24
2018-07-17T12:03:32.001Z,1021.22
2018-07-17T12:04:32.006Z,1021.09
2018-07-17T12:05:32.021Z,1021.1
2018-07-17T12:06:32.016Z,1021.08
2018-07-17T12:07:32.029Z,1021.04
2018-07-17T12:08:32.028Z,1021.05
2018-07-17T12:09:32.035Z,1021.1
2018-07-17T12:10:32.037Z,1021.13
2018-07-17T12:11:32.060Z,1021.29